createdAt,value
2018-02-14T00:01:44.284Z,20.00
2018-02-14T00:04:17.095Z,16.25
2018-02-14T00:06:48.715Z,14.00
2018-02-14T00:09:22.245Z,16.75
2018-02-14T00:11:55.346Z,15.25
2018-02-14T00:14:27.237Z,17.00
2018-02-14T00:16:59.917Z,16.00
2018-02-14T00:19:30.764Z,15.00
2018-02-14T00:22:02.617Z,18.50
2018-02-14T00:24:34.958Z,19.00
2018-02-14T00:27:09.083Z,16.75
2018-02-14T00:29:43.106Z,13.50
2018-02-14T00:32:15.405Z,16.75
2018-02-14T00:34:50.578Z,16.75
2018-02-14T00:37:26.137Z,13.00
2018-02-14T00:40:08.276Z,17.25
2018-02-14T00:42:42.636Z,19.25
2018-02-14T00:45:39.793Z,15.75
2018-02-14T00:48:13.558Z,16.75
2018-02-14T00:50:46.639Z,14.75
2018-02-14T00:53:20.787Z,13.25
2018-02-14T00:56:06.905Z,18.50
2018-02-14T00:58:40.539Z,20.75
2018-02-14T01:01:14.452Z,18.00
2018-02-14T01:03:48.784Z,19.50
2018-02-14T01:06:20.673Z,20.25
2018-02-14T01:08:56.238Z,24.25
2018-02-14T01:11:34.617Z,20.25
2018-02-14T01:14:11.834Z,18.75
2018-02-14T01:16:44.649Z,18.25
2018-02-14T01:19:19.619Z,23.00
2018-02-14T01:21:51.671Z,16.00
2018-02-14T01:24:26.090Z,17.50
2018-02-14T01:27:04.352Z,16.00
2018-02-14T01:29:40.235Z,20.25
2018-02-14T01:32:14.086Z,17.25
2018-02-14T01:34:46.563Z,17.25
2018-02-14T01:37:21.328Z,23.25
2018-02-14T01:39:54.177Z,22.50
2018-02-14T01:42:27.751Z,19.00
2018-02-14T01:45:06.434Z,17.00
2018-02-14T01:47:39.152Z,14.50
2018-02-14T01:50:10.599Z,21.00
2018-02-14T01:52:41.723Z,23.00
2018-02-14T01:55:12.314Z,21.75
2018-02-14T01:57:46.135Z,20.25
2018-02-14T02:00:21.094Z,20.75
2018-02-14T02:02:59.191Z,24.50
2018-02-14T02:08:12.714Z,22.75
2018-02-14T02:10:47.247Z,23.00
2018-02-14T02:13:17.455Z,25.25
2018-02-14T02:15:48.505Z,21.75
2018-02-14T02:18:27.090Z,22.75
2018-02-14T02:21:00.254Z,23.00
2018-02-14T02:23:33.520Z,19.25
2018-02-14T02:26:05.352Z,23.25
2018-02-14T02:28:36.536Z,23.75
2018-02-14T02:31:15.486Z,24.00
2018-02-14T02:33:48.846Z,23.75
2018-02-14T02:36:20.442Z,26.00
2018-02-14T02:38:51.629Z,23.25
2018-02-14T02:41:22.172Z,24.50
2018-02-14T02:43:55.561Z,21.50
2018-02-14T02:46:31.845Z,24.00
2018-02-14T02:49:04.434Z,29.25
2018-02-14T02:51:38.869Z,20.50
2018-02-14T02:54:09.617Z,24.25
2018-02-14T02:56:44.107Z,25.25
2018-02-14T02:59:20.265Z,26.75
2018-02-14T03:01:52.069Z,25.75
2018-02-14T03:04:23.903Z,24.00
2018-02-14T03:06:57.330Z,22.50
2018-02-14T03:09:28.136Z,27.25
2018-02-14T03:11:59.945Z,23.00
2018-02-14T03:14:30.163Z,29.00
2018-02-14T03:17:02.362Z,23.00
2018-02-14T03:19:34.443Z,27.00
2018-02-14T03:22:04.910Z,24.00
2018-02-14T03:24:36.294Z,32.50
2018-02-14T03:27:08.129Z,25.00
2018-02-14T03:29:40.579Z,21.75
2018-02-14T03:32:13.486Z,26.25
2018-02-14T03:34:44.295Z,27.00
2018-02-14T03:37:14.770Z,28.00
2018-02-14T03:39:46.739Z,25.75
2018-02-14T03:42:17.257Z,23.75
2018-02-14T03:44:47.509Z,27.00
2018-02-14T03:47:20.048Z,31.25
2018-02-14T03:49:50.771Z,27.25
2018-02-14T03:52:21.572Z,28.25
2018-02-14T03:54:52.901Z,29.50
2018-02-14T03:57:24.147Z,25.25
2018-02-14T03:59:55.934Z,28.25
2018-02-14T04:02:29.967Z,25.00
2018-02-14T04:05:02.723Z,26.25
2018-02-14T04:07:34.476Z,27.50
2018-02-14T04:10:14.971Z,25.75
2018-02-14T04:12:46.515Z,24.75
2018-02-14T04:15:18.667Z,33.50
2018-02-14T04:17:48.839Z,25.25
2018-02-14T04:20:22.972Z,27.75
2018-02-14T04:22:54.543Z,29.75
2018-02-14T04:25:26.885Z,26.25
2018-02-14T04:27:59.770Z,27.75
2018-02-14T04:30:42.154Z,25.25
2018-02-14T04:33:12.699Z,26.75
2018-02-14T04:35:46.209Z,26.25
2018-02-14T04:38:18.703Z,25.75
2018-02-14T04:40:50.213Z,27.75
2018-02-14T04:43:24.074Z,28.00
2018-02-14T04:45:55.657Z,21.75
2018-02-14T04:48:27.836Z,26.75
2018-02-14T04:51:05.007Z,18.25
2018-02-14T04:53:37.236Z,24.25
2018-02-14T04:56:15.575Z,24.25
2018-02-14T04:58:45.932Z,25.50
2018-02-14T05:01:17.127Z,27.75
2018-02-14T05:03:47.483Z,23.25
2018-02-14T05:06:20.409Z,27.25
2018-02-14T05:08:51.516Z,30.25
2018-02-14T05:11:21.824Z,26.75
2018-02-14T05:13:52.227Z,25.00
2018-02-14T05:16:23.359Z,30.50
2018-02-14T05:18:54.064Z,30.75
2018-02-14T05:21:26.640Z,28.75
2018-02-14T05:23:57.576Z,31.75
2018-02-14T05:26:28.162Z,31.75
2018-02-14T05:28:58.456Z,22.75
2018-02-14T05:31:29.170Z,25.25
2018-02-14T05:33:59.619Z,31.50
2018-02-14T05:36:31.572Z,25.25
2018-02-14T05:41:31.054Z,26.25
2018-02-14T05:44:02.000Z,25.75
2018-02-14T05:46:32.573Z,29.25
2018-02-14T05:49:07.093Z,31.50
2018-02-14T05:51:41.339Z,31.50
2018-02-14T05:54:14.681Z,24.25
2018-02-14T05:56:45.140Z,32.25
2018-02-14T06:01:58.614Z,26.00
2018-02-14T06:04:28.987Z,30.00
2018-02-14T06:06:59.691Z,25.75
2018-02-14T06:09:30.250Z,27.75
2018-02-14T06:12:02.225Z,32.75
2018-02-14T06:14:35.215Z,30.00
2018-02-14T06:17:07.455Z,34.00
2018-02-14T06:19:39.825Z,35.00
2018-02-14T06:22:10.720Z,28.50
2018-02-14T06:24:41.172Z,31.00
2018-02-14T06:27:12.905Z,32.50
2018-02-14T06:29:43.339Z,35.50
2018-02-14T06:32:15.627Z,32.50
2018-02-14T06:34:46.872Z,34.00
2018-02-14T06:37:17.935Z,35.00
2018-02-14T06:39:50.507Z,30.00
2018-02-14T06:42:22.248Z,26.50
2018-02-14T06:44:54.388Z,26.00
2018-02-14T06:47:30.385Z,31.00
2018-02-14T06:50:04.201Z,33.50
2018-02-14T06:52:36.027Z,34.00
2018-02-14T06:55:06.487Z,35.25
2018-02-14T06:57:38.941Z,30.00
2018-02-14T07:00:18.130Z,32.25
2018-02-14T07:02:48.447Z,27.75
2018-02-14T07:05:22.518Z,31.75
2018-02-14T07:08:01.709Z,32.25
2018-02-14T07:10:34.064Z,36.50
2018-02-14T07:13:12.184Z,37.75
2018-02-14T07:15:49.367Z,33.00
2018-02-14T07:18:21.417Z,41.50
2018-02-14T07:21:00.394Z,35.75
2018-02-14T07:23:48.867Z,30.25
2018-02-14T07:26:23.334Z,34.75
2018-02-14T07:28:57.335Z,41.25
2018-02-14T07:31:29.898Z,34.75
2018-02-14T07:34:04.545Z,36.25
2018-02-14T07:36:37.432Z,30.25
2018-02-14T07:39:12.552Z,42.50
2018-02-14T07:41:46.863Z,31.75
2018-02-14T07:44:19.217Z,38.00
2018-02-14T07:46:55.267Z,31.50
2018-02-14T07:49:28.480Z,34.00
2018-02-14T07:52:00.337Z,33.50
2018-02-14T07:54:33.903Z,41.50
2018-02-14T07:57:06.893Z,37.00
2018-02-14T07:59:41.632Z,32.25
2018-02-14T08:02:14.703Z,39.00
2018-02-14T08:04:51.038Z,38.75
2018-02-14T08:07:24.211Z,40.75
2018-02-14T08:09:57.058Z,38.50
2018-02-14T08:12:32.808Z,37.00
2018-02-14T08:15:19.149Z,34.75
2018-02-14T08:17:51.904Z,53.25
2018-02-14T08:20:25.080Z,36.00
2018-02-14T08:22:59.326Z,41.75
2018-02-14T08:25:36.522Z,40.75
2018-02-14T08:28:22.570Z,43.25
2018-02-14T08:30:55.815Z,36.50
2018-02-14T08:33:29.272Z,40.00
2018-02-14T08:36:03.869Z,36.25
2018-02-14T08:38:36.112Z,44.00
2018-02-14T08:41:22.384Z,41.75
2018-02-14T08:44:04.194Z,44.25
2018-02-14T08:46:37.614Z,42.50
2018-02-14T08:49:09.392Z,50.25
2018-02-14T08:51:40.509Z,41.50
2018-02-14T08:54:11.500Z,49.00
2018-02-14T08:56:45.001Z,49.25
2018-02-14T08:59:23.181Z,42.25
2018-02-14T09:01:56.174Z,37.25
2018-02-14T09:04:31.261Z,43.00
2018-02-14T09:07:04.166Z,42.50
2018-02-14T09:09:35.706Z,41.50
2018-02-14T09:12:06.652Z,42.25
2018-02-14T09:14:38.248Z,42.75
2018-02-14T09:17:12.891Z,46.50
2018-02-14T09:19:44.091Z,36.75
2018-02-14T09:22:18.168Z,43.50
2018-02-14T09:24:50.579Z,41.50
2018-02-14T09:27:21.985Z,42.75
2018-02-14T09:29:52.680Z,40.00
2018-02-14T09:32:25.023Z,41.25
2018-02-14T09:34:56.676Z,41.50
2018-02-14T09:37:27.156Z,38.75
2018-02-14T09:39:57.765Z,38.25
2018-02-14T09:42:29.859Z,40.25
2018-02-14T09:45:00.528Z,39.75
2018-02-14T09:47:33.710Z,37.00
2018-02-14T09:50:04.692Z,36.50
2018-02-14T09:52:35.319Z,36.00
2018-02-14T09:55:05.668Z,42.00
2018-02-14T09:57:36.822Z,27.75
2018-02-14T10:00:14.984Z,35.00
2018-02-14T10:02:46.853Z,45.25
2018-02-14T10:05:20.023Z,40.75
2018-02-14T10:07:50.563Z,32.50
2018-02-14T10:10:21.660Z,34.25
2018-02-14T10:12:53.412Z,40.75
2018-02-14T10:15:24.042Z,37.25
2018-02-14T10:17:55.370Z,36.75
2018-02-14T10:20:26.261Z,35.75
2018-02-14T10:23:09.832Z,32.75
2018-02-14T10:28:31.068Z,41.50
2018-02-14T10:31:02.600Z,36.25
2018-02-14T10:33:35.048Z,40.00
2018-02-14T10:36:06.842Z,36.50
2018-02-14T10:38:37.644Z,36.75
2018-02-14T10:41:09.526Z,29.50
2018-02-14T10:43:41.194Z,35.00
2018-02-14T10:46:11.859Z,33.25
2018-02-14T10:48:43.004Z,35.25
2018-02-14T10:51:13.619Z,32.00
2018-02-14T10:53:44.076Z,29.50
2018-02-14T10:56:21.649Z,32.75
2018-02-14T10:58:51.836Z,30.00
2018-02-14T11:01:29.524Z,33.75
2018-02-14T11:04:04.742Z,31.25
2018-02-14T11:06:36.949Z,29.50
2018-02-14T11:09:07.646Z,33.75
2018-02-14T11:11:38.061Z,31.25
2018-02-14T11:14:08.538Z,31.00
2018-02-14T11:16:39.338Z,32.25
2018-02-14T11:19:10.914Z,31.50
2018-02-14T11:21:42.081Z,25.00
2018-02-14T11:24:12.903Z,26.50
2018-02-14T11:26:43.627Z,27.00
2018-02-14T11:29:14.846Z,34.25
2018-02-14T11:31:46.822Z,30.00
2018-02-14T11:34:19.059Z,31.50
2018-02-14T11:36:50.050Z,25.75
2018-02-14T11:39:24.083Z,27.50
2018-02-14T11:42:01.356Z,30.00
2018-02-14T11:44:32.780Z,26.75
2018-02-14T11:47:03.577Z,26.75
2018-02-14T11:49:34.290Z,24.75
2018-02-14T11:52:05.173Z,26.50
2018-02-14T11:54:37.528Z,29.75
2018-02-14T11:57:08.697Z,23.50
2018-02-14T11:59:40.026Z,27.00
2018-02-14T12:02:11.365Z,23.75
2018-02-14T12:04:42.421Z,26.75
2018-02-14T12:07:13.888Z,26.75
2018-02-14T12:09:44.428Z,23.50
2018-02-14T12:12:17.224Z,26.25
2018-02-14T12:14:49.388Z,27.25
2018-02-14T12:17:20.783Z,20.50
2018-02-14T12:19:51.262Z,25.75
2018-02-14T12:22:21.899Z,25.75
2018-02-14T12:24:52.699Z,22.50
2018-02-14T12:27:27.310Z,20.50
2018-02-14T12:30:00.820Z,18.00
2018-02-14T12:32:34.843Z,25.75
2018-02-14T12:35:06.179Z,23.50
2018-02-14T12:37:36.976Z,19.75
2018-02-14T12:40:07.590Z,21.75
2018-02-14T12:42:37.987Z,22.50
2018-02-14T12:45:13.332Z,21.00
2018-02-14T12:47:45.074Z,19.50
2018-02-14T12:50:16.034Z,19.00
2018-02-14T12:52:46.856Z,20.25
2018-02-14T12:55:18.303Z,22.25
2018-02-14T12:57:57.706Z,19.50
2018-02-14T13:00:32.409Z,25.00
2018-02-14T13:03:03.269Z,18.25
2018-02-14T13:08:20.387Z,20.75
2018-02-14T13:10:55.437Z,18.75
2018-02-14T13:13:26.965Z,22.25
2018-02-14T13:15:58.228Z,20.25
2018-02-14T13:18:35.329Z,21.50
2018-02-14T13:21:07.368Z,21.00
2018-02-14T13:23:40.194Z,17.25
2018-02-14T13:26:16.893Z,16.75
2018-02-14T13:28:51.823Z,19.75
2018-02-14T13:31:38.485Z,17.25
2018-02-14T13:34:21.698Z,19.75
2018-02-14T13:36:53.143Z,17.50
2018-02-14T13:39:25.752Z,21.25
2018-02-14T13:41:58.954Z,21.00
2018-02-14T13:45:17.061Z,22.50
2018-02-14T13:47:51.114Z,23.00
2018-02-14T13:50:26.099Z,28.00
2018-02-14T13:53:00.084Z,23.00
2018-02-14T13:55:38.455Z,20.50
2018-02-14T13:58:11.745Z,25.75
2018-02-14T14:00:48.107Z,21.75
2018-02-14T14:03:27.833Z,19.25
2018-02-14T14:06:06.584Z,25.00
2018-02-14T14:08:41.759Z,19.00
2018-02-14T14:14:21.009Z,25.50
2018-02-14T14:16:58.555Z,21.00
2018-02-14T14:19:41.095Z,21.00
2018-02-14T14:22:16.113Z,20.50
2018-02-14T14:24:51.322Z,20.25
2018-02-14T14:30:04.998Z,19.25
2018-02-14T14:32:39.092Z,26.00
2018-02-14T14:35:15.621Z,20.00
2018-02-14T14:37:47.481Z,19.75
2018-02-14T14:40:18.176Z,20.00
2018-02-14T14:42:49.017Z,16.75
2018-02-14T14:45:23.532Z,17.50
2018-02-14T14:47:54.803Z,18.75
2018-02-14T14:50:26.307Z,20.00
2018-02-14T14:53:02.377Z,20.00
2018-02-14T14:55:33.199Z,16.25
2018-02-14T14:58:04.271Z,20.50
2018-02-14T15:00:35.231Z,16.50
2018-02-14T15:03:08.005Z,21.25
2018-02-14T15:05:49.254Z,17.00
2018-02-14T15:08:20.373Z,14.25
2018-02-14T15:11:14.776Z,20.25
2018-02-14T15:14:01.468Z,15.75
2018-02-14T15:16:32.382Z,14.75
2018-02-14T15:19:04.497Z,16.00
2018-02-14T15:21:35.865Z,15.25
2018-02-14T15:24:07.410Z,21.00
2018-02-14T15:26:47.012Z,18.50
2018-02-14T15:29:24.181Z,20.00
2018-02-14T15:31:57.870Z,16.00
2018-02-14T15:34:31.152Z,14.25
2018-02-14T15:37:03.135Z,16.00
2018-02-14T15:39:35.363Z,19.00
2018-02-14T15:42:12.755Z,16.00
2018-02-14T15:44:45.072Z,19.50
2018-02-14T15:47:16.332Z,13.75
2018-02-14T15:49:47.255Z,13.00
2018-02-14T15:52:18.905Z,14.50
2018-02-14T15:54:51.198Z,13.00
2018-02-14T15:57:22.366Z,15.00
2018-02-14T16:00:36.127Z,12.75
2018-02-14T16:03:07.093Z,12.50
2018-02-14T16:05:39.881Z,13.00
2018-02-14T16:08:10.745Z,16.00
2018-02-14T16:10:42.705Z,12.75
2018-02-14T16:13:13.707Z,13.00
2018-02-14T16:15:45.714Z,9.50
2018-02-14T16:18:17.663Z,15.25
2018-02-14T16:20:52.142Z,13.25
2018-02-14T16:23:25.541Z,14.00
2018-02-14T16:25:59.354Z,16.25
2018-02-14T16:28:33.777Z,13.50
2018-02-14T16:34:09.246Z,17.50
2018-02-14T16:37:10.376Z,14.00
2018-02-14T16:39:43.603Z,14.50
2018-02-14T16:45:06.751Z,13.25
2018-02-14T16:47:39.828Z,13.25
2018-02-14T16:50:11.529Z,18.00
2018-02-14T16:52:44.973Z,24.25
2018-02-14T16:55:17.035Z,14.50
2018-02-14T16:57:48.988Z,16.50
2018-02-14T17:00:22.473Z,17.50
2018-02-14T17:03:10.771Z,18.50
2018-02-14T17:05:45.593Z,17.50
2018-02-14T17:08:25.230Z,16.75
2018-02-14T17:10:58.986Z,20.25
2018-02-14T17:16:39.428Z,23.75
2018-02-14T17:19:21.306Z,22.50
2018-02-14T17:22:07.902Z,22.00
2018-02-14T17:24:52.991Z,18.25
2018-02-14T17:27:30.090Z,19.50
2018-02-14T17:30:08.524Z,19.75
2018-02-14T17:32:50.101Z,20.50
2018-02-14T17:35:24.988Z,26.00
2018-02-14T17:37:58.314Z,22.75
2018-02-14T17:40:32.461Z,22.25
2018-02-14T17:43:33.648Z,23.00
2018-02-14T17:46:16.123Z,19.75
2018-02-14T17:48:56.320Z,23.75
2018-02-14T17:51:34.160Z,22.75
2018-02-14T17:54:23.160Z,23.50
2018-02-14T17:57:05.153Z,24.50
2018-02-14T17:59:47.493Z,21.75
2018-02-14T18:02:36.004Z,28.00
2018-02-14T18:05:13.139Z,21.75
2018-02-14T18:07:52.908Z,23.50
2018-02-14T18:13:13.770Z,22.75
2018-02-14T18:15:54.660Z,24.75
2018-02-14T18:18:34.331Z,26.00
2018-02-14T18:21:18.889Z,22.75
2018-02-14T18:24:02.558Z,23.75
2018-02-14T18:26:41.995Z,21.25
2018-02-14T18:29:19.662Z,19.75
2018-02-14T18:32:03.566Z,23.50
2018-02-14T18:34:42.174Z,22.75
2018-02-14T18:37:20.797Z,22.25
2018-02-14T18:39:53.616Z,24.50
2018-02-14T18:42:32.472Z,28.00
2018-02-14T18:45:20.401Z,24.25
2018-02-14T18:47:54.883Z,21.75
2018-02-14T18:50:36.070Z,27.25
2018-02-14T18:53:11.279Z,23.00
2018-02-14T18:55:45.765Z,27.50
2018-02-14T18:58:18.850Z,26.50
2018-02-14T19:00:54.872Z,29.50
2018-02-14T19:03:32.660Z,25.75
2018-02-14T19:06:12.169Z,26.50
2018-02-14T19:08:48.684Z,28.00
2018-02-14T19:11:25.948Z,31.25
2018-02-14T19:14:08.985Z,25.00
2018-02-14T19:19:24.418Z,34.00
2018-02-14T19:21:58.196Z,31.25
2018-02-14T19:24:36.202Z,36.25
2018-02-14T19:27:16.805Z,23.75
2018-02-14T19:32:55.677Z,22.75
2018-02-14T19:35:41.310Z,26.25
2018-02-14T19:38:18.253Z,30.75
2018-02-14T19:40:53.248Z,19.25
2018-02-14T19:43:27.882Z,23.00
2018-02-14T19:46:07.519Z,27.50
2018-02-14T19:48:40.944Z,31.00
2018-02-14T19:51:14.996Z,26.75
2018-02-14T19:53:50.455Z,30.25
2018-02-14T19:56:23.205Z,32.50
2018-02-14T19:58:56.841Z,31.50
2018-02-14T20:01:32.657Z,28.00
2018-02-14T20:04:06.706Z,28.75
2018-02-14T20:06:42.326Z,28.75
2018-02-14T20:09:16.342Z,30.25
2018-02-14T20:11:58.929Z,31.25
2018-02-14T20:14:34.406Z,35.00
2018-02-14T20:17:14.441Z,32.25
2018-02-14T20:19:50.249Z,31.75
2018-02-14T20:22:27.499Z,27.50
2018-02-14T20:25:01.391Z,33.50
2018-02-14T20:27:34.820Z,27.50
2018-02-14T20:30:15.308Z,32.50
2018-02-14T20:32:53.400Z,27.75
2018-02-14T20:35:26.184Z,31.25
2018-02-14T20:38:01.873Z,39.50
2018-02-14T20:40:34.847Z,29.75
2018-02-14T20:43:09.257Z,31.25
2018-02-14T20:45:44.006Z,38.00
2018-02-14T20:48:17.678Z,34.75
2018-02-14T20:50:53.532Z,31.25
2018-02-14T20:53:26.805Z,34.75
2018-02-14T20:55:59.402Z,33.25
2018-02-14T20:58:31.923Z,33.00
2018-02-14T21:01:06.512Z,32.00
2018-02-14T21:03:38.614Z,35.75
2018-02-14T21:06:14.920Z,28.75
2018-02-14T21:08:48.313Z,33.50
2018-02-14T21:11:27.288Z,40.00
2018-02-14T21:14:05.996Z,35.75
2018-02-14T21:16:41.483Z,33.50
2018-02-14T21:19:21.677Z,32.25
2018-02-14T21:21:59.922Z,37.50
2018-02-14T21:24:36.778Z,33.00
2018-02-14T21:27:16.754Z,32.25
2018-02-14T21:30:14.216Z,35.75
2018-02-14T21:32:48.063Z,33.50
2018-02-14T21:35:22.316Z,38.75
2018-02-14T21:37:56.675Z,34.00
2018-02-14T21:43:18.391Z,36.00
2018-02-14T21:45:55.425Z,37.75
2018-02-14T21:48:31.792Z,44.50
2018-02-14T21:51:06.308Z,36.75
2018-02-14T21:53:40.882Z,37.00
2018-02-14T21:56:15.898Z,42.50
2018-02-14T21:58:51.621Z,41.25
2018-02-14T22:01:28.121Z,33.75
2018-02-14T22:04:07.155Z,41.75
2018-02-14T22:06:39.340Z,35.25
2018-02-14T22:11:59.482Z,37.50
2018-02-14T22:14:34.372Z,35.50
2018-02-14T22:17:09.602Z,30.25
2018-02-14T22:19:45.398Z,33.00
2018-02-14T22:22:21.884Z,41.00
2018-02-14T22:24:57.855Z,40.75
2018-02-14T22:27:36.461Z,37.00
2018-02-14T22:32:54.051Z,33.75
2018-02-14T22:35:27.650Z,40.00
2018-02-14T22:38:06.590Z,33.50
2018-02-14T22:40:41.264Z,38.50
2018-02-14T22:43:14.079Z,39.50
2018-02-14T22:45:50.212Z,35.50
2018-02-14T22:48:22.503Z,43.25
2018-02-14T22:50:53.075Z,40.00
2018-02-14T22:53:28.764Z,44.75
2018-02-14T22:56:08.035Z,43.25
2018-02-14T22:58:47.684Z,45.25
2018-02-14T23:01:24.487Z,47.50
2018-02-14T23:03:57.985Z,47.00
2018-02-14T23:06:38.174Z,51.75
2018-02-14T23:09:16.551Z,45.00
2018-02-14T23:11:58.687Z,42.50
2018-02-14T23:14:30.695Z,36.25
2018-02-14T23:17:08.398Z,38.25
2018-02-14T23:19:45.064Z,48.25
2018-02-14T23:22:35.130Z,37.25
2018-02-14T23:25:11.863Z,44.50
2018-02-14T23:27:45.835Z,36.50
2018-02-14T23:30:28.872Z,38.75
2018-02-14T23:33:04.993Z,43.00
2018-02-14T23:35:39.238Z,42.75
2018-02-14T23:38:21.785Z,35.50
2018-02-14T23:40:59.425Z,41.00
2018-02-14T23:43:37.982Z,40.75
2018-02-14T23:46:11.069Z,46.25
2018-02-14T23:48:51.996Z,42.50
2018-02-14T23:51:25.966Z,42.00
2018-02-14T23:54:03.973Z,39.50
2018-02-14T23:56:39.063Z,36.75
2018-02-14T23:59:12.743Z,40.00
